Latest Weather Observations for Julia Creek

IDQ60801

Issued at 9:05 am EST Tuesday 2 September 2014 (issued every 30 minutes, with the page automatically refreshed every 10 minutes)

About weather observations | Map of weather stations | Latest weather observations for QLD | Other Formats
Station Details ID: 029058 Name: JULIA CREEK AIRPORT Lat: -20.67 Lon: 141.72 Height: 122.5 m
Data from the previous 72 hours. | See also: Recent months at Julia Creek
Date/Time
EST
Temp
°C
App
Temp
°C
Dew
Point
Rel
Hum
%
Delta-T
°C
Wind Press
QNH
hPa
Press
MSL
hPa
Rain
since 9 am
mm
Dir
 
Spd
km/h
Gust
km/h
Spd
kts
Gust
kts
02/09:00am 21.7 13.5 -3.6 18 10.6 SSE 30 39 16 21 1019.7 1019.2 0.0
02/08:30am 19.4 12.9 -5.5 18 9.8 S 20 28 11 15 1019.3 1018.8 0.0
02/08:00am 16.6 12.1 -7.1 19 8.8 S 9 15 5 8 1018.9 1018.4 0.0
02/07:30am 14.0 9.5 -6.8 23 7.5 S 9 13 5 7 1018.5 1018.0 0.0
02/07:00am 9.0 3.9 -9.0 27 5.8 ESE 11 17 6 9 1017.7 1017.1 0.0
02/06:30am 9.9 5.9 -7.3 29 5.8 ENE 6 9 3 5 1016.6 1016.0 0.0
02/06:00am 9.9 5.3 -8.2 27 6.0 E 9 9 5 5 1016.3 1015.7 0.0
02/05:30am 11.4 7.5 -6.9 27 6.4 E 6 6 3 3 1016.1 1015.5 0.0
02/05:00am 10.8 6.6 -7.9 26 6.3 E 7 11 4 6 1016.1 1015.5 0.0
02/04:30am 11.4 7.2 -7.4 26 6.5 SSE 7 9 4 5 1016.0 1015.4 0.0
02/04:00am 12.4 7.9 -7.0 25 6.8 S 9 11 5 6 1015.9 1015.3 0.0
02/03:30am 13.7 9.6 -6.5 24 7.3 S 7 13 4 7 1015.9 1015.3 0.0
02/03:00am 15.1 9.2 -5.9 23 7.8 SSW 17 20 9 11 1015.9 1015.3 0.0
02/02:30am 12.8 8.3 -7.2 24 7.1 SSE 9 11 5 6 1015.8 1015.2 0.0
02/02:00am 13.7 9.2 -7.0 23 7.4 SE 9 11 5 6 1016.0 1015.4 0.0
02/01:30am 15.5 11.8 -5.0 24 7.9 ESE 6 9 3 5 1016.0 1015.4 0.0
02/01:00am 15.7 11.7 -5.9 22 8.1 SE 7 9 4 5 1016.0 1015.4 0.0
02/12:30am 16.1 11.3 -5.6 22 8.3 SE 11 13 6 7 1016.0 1015.4 0.0
02/12:00am 16.6 11.6 -4.6 23 8.3 SE 13 15 7 8 1016.0 1015.4 0.0
 
Date/Time
EST
Temp
°C
App
Temp
°C
Dew
Point
Rel
Hum
%
Delta-T
°C
Wind Press
QNH
hPa
Press
MSL
hPa
Rain
since 9 am
mm
Dir
 
Spd
km/h
Gust
km/h
Spd
kts
Gust
kts
01/11:30pm 15.3 10.0 -6.9 21 8.1 SE 13 15 7 8 1015.9 1015.3 0.0
01/11:00pm 17.6 13.6 -5.6 20 9.0 SSE 7 11 4 6 1016.0 1015.4 0.0
01/10:30pm 17.2 13.2 -5.9 20 8.8 S 7 9 4 5 1016.0 1015.4 0.0
01/10:00pm 19.5 16.5 -4.7 19 9.7 S 2 7 1 4 1015.9 1015.3 0.0
01/09:30pm 20.3 17.6 -2.7 21 9.7 S 2 4 1 2 1015.7 1015.1 0.0
01/09:00pm 20.0 16.8 -3.6 20 9.7 S 4 4 2 2 1015.5 1014.9 0.0
01/08:30pm 20.6 16.4 -3.8 19 10.1 S 9 9 5 5 1015.3 1014.7 0.0
01/08:00pm 22.2 18.1 -3.2 18 10.8 S 9 11 5 6 1014.9 1014.3 0.0
01/07:30pm 23.1 18.9 -4.1 16 11.5 S 9 13 5 7 1014.7 1014.1 0.0
01/07:00pm 24.2 19.5 -4.9 14 12.2 S 11 13 6 7 1014.1 1013.5 0.0
01/06:30pm 27.1 23.3 -3.7 13 13.5 S 7 9 4 5 1014.2 1013.6 0.0
01/06:00pm 29.9 25.9 -2.6 12 14.9 S 9 11 5 6 1014.0 1013.4 0.0
01/05:30pm 31.2 27.5 -2.7 11 15.7 SW 7 11 4 6 1013.7 1013.2 0.0
01/05:00pm 31.3 27.3 -2.6 11 15.7 SW 9 17 5 9 1013.6 1013.1 0.0
01/04:30pm 32.1 29.1 -2.0 11 16.1 W 4 7 2 4 1013.4 1012.9 0.0
01/04:00pm 31.4 27.5 -1.4 12 15.5 S 9 15 5 8 1013.5 1013.0 0.0
01/03:30pm 31.9 27.5 -2.2 11 16.0 SW 11 19 6 10 1013.6 1013.1 0.0
01/03:00pm 31.0 28.0 -1.7 12 15.4 ENE 4 9 2 5 1013.8 1013.3 0.0
01/02:30pm 31.0 27.6 -1.7 12 15.4 SE 6 9 3 5 1014.4 1013.8 0.0
01/02:00pm 31.2 27.9 -1.5 12 15.4 SE 6 7 3 4 1014.7 1014.1 0.0
01/01:30pm 30.3 27.0 -0.1 14 14.6 N 7 17 4 9 1015.1 1014.5 0.0
01/01:00pm 30.6 27.3 0.1 14 14.7 ESE 7 17 4 9 1015.9 1015.3 0.0
01/12:30pm 29.8 25.8 0.4 15 14.2 E 11 17 6 9 1016.4 1015.8 0.0
01/12:00pm 29.1 25.9 0.7 16 13.7 ESE 7 17 4 9 1016.9 1016.3 0.0
01/11:30am 29.0 26.0 2.3 18 13.2 NE 7 20 4 11 1017.5 1016.9 0.0
01/11:00am 28.1 24.9 3.0 20 12.5 N 9 17 5 9 1018.0 1017.4 0.0
01/10:30am 27.4 24.0 3.8 22 11.9 N 11 17 6 9 1018.3 1017.7 0.0
01/10:00am 26.1 21.3 4.6 25 10.9 N 19 22 10 12 1018.4 1017.9 0.0
01/09:30am 23.8 20.4 2.0 24 10.4 NNE 9 15 5 8 1018.8 1018.5 0.0
01/09:00am 21.6 18.3 0.2 24 9.7 NE 7 9 4 5 1018.9 1018.6 0.0
01/08:30am 18.3 14.2 -3.2 23 8.8 ENE 9 11 5 6 1018.4 1018.1 0.0
01/08:00am 15.7 11.8 -4.8 24 7.9 E 7 11 4 6 1018.1 1017.8 0.0
01/07:30am 12.1 8.0 -6.3 27 6.6 ESE 7 9 4 5 1017.7 1017.4 0.0
01/07:00am 9.2 4.6 -7.4 30 5.6 SE 9 11 5 6 1017.3 1017.0 0.0
01/06:30am 9.3 4.7 -7.4 30 5.6 SE 9 9 5 5 1016.8 1016.5 0.0
01/06:00am 9.4 4.4 -7.7 29 5.7 SE 11 11 6 6 1016.0 1015.6 0.0
01/05:30am 9.8 4.9 -7.4 29 5.8 SE 11 13 6 7 1015.4 1015.0 0.0
01/05:00am 9.4 4.1 -7.7 29 5.7 SE 13 13 7 7 1015.1 1014.7 0.0
01/04:30am 9.8 4.5 -7.8 28 5.9 SE 13 13 7 7 1015.0 1014.6 0.0
01/04:00am 10.2 5.2 -7.9 27 6.1 SE 11 13 6 7 1014.9 1014.5 0.0
01/03:30am 12.2 6.6 -6.2 27 6.6 E 15 19 8 10 1014.7 1014.3 0.0
01/03:00am 11.3 6.4 -7.0 27 6.4 SE 11 13 6 7 1014.7 1014.3 0.0
01/02:30am 12.3 7.4 -6.6 26 6.7 SE 11 13 6 7 1015.0 1014.6 0.0
01/02:00am 13.8 8.3 -5.3 26 7.1 SE 15 17 8 9 1015.0 1014.6 0.0
01/01:30am 12.9 7.7 -6.1 26 6.9 SE 13 15 7 8 1015.0 1014.6 0.0
01/01:00am 13.5 8.3 -6.1 25 7.2 SE 13 15 7 8 1015.3 1014.9 0.0
01/12:30am 14.4 9.7 -5.3 25 7.4 SE 11 13 6 7 1015.3 1014.9 0.0
01/12:00am 14.6 9.5 -5.2 25 7.5 SE 13 15 7 8 1015.4 1015.0 0.0
 
Date/Time
EST
Temp
°C
App
Temp
°C
Dew
Point
Rel
Hum
%
Delta-T
°C
Wind Press
QNH
hPa
Press
MSL
hPa
Rain
since 9 am
mm
Dir
 
Spd
km/h
Gust
km/h
Spd
kts
Gust
kts
31/11:30pm 14.5 9.3 -5.8 24 7.6 SSE 13 15 7 8 1015.5 1015.1 0.0
31/11:00pm 15.5 10.4 -5.0 24 7.8 SSE 13 15 7 8 1015.5 1015.1 0.0
31/10:30pm 16.5 10.7 -4.7 23 8.3 SSE 17 17 9 9 1015.5 1015.1 0.0
31/10:00pm 17.1 12.0 -4.8 22 8.6 SSE 13 15 7 8 1015.5 1015.1 0.0
31/09:30pm 18.3 13.0 -3.8 22 8.9 SSE 15 17 8 9 1015.4 1015.0 0.0
31/09:00pm 18.8 14.1 -4.6 20 9.4 SE 11 13 6 7 1015.4 1015.0 0.0
31/08:30pm 19.5 14.5 -4.0 20 9.6 SSE 13 17 7 9 1015.1 1014.7 0.0
31/08:00pm 20.1 15.1 -4.2 19 9.9 SSE 13 17 7 9 1014.9 1014.5 0.0
31/07:30pm 21.0 15.6 -4.2 18 10.4 SSE 15 17 8 9 1014.5 1014.1 0.0
31/07:00pm 23.0 18.1 -3.3 17 11.2 SSE 13 13 7 7 1014.2 1013.8 0.0
31/06:30pm 26.2 21.4 -2.4 15 12.8 SSE 13 17 7 9 1013.7 1013.4 0.0
31/06:00pm 28.6 23.9 -1.5 14 13.9 SSE 13 17 7 9 1013.4 1013.1 0.0
31/05:30pm 29.5 25.7 -0.8 14 14.3 SE 9 15 5 8 1013.3 1013.0 0.0
31/05:00pm 29.9 24.0 -0.5 14 14.5 SE 20 24 11 13 1013.3 1013.0 0.0
31/04:30pm 30.1 26.0 -0.3 14 14.5 SSW 11 20 6 11 1013.4 1013.1 0.0
31/04:00pm 30.2 25.3 -0.2 14 14.6 S 15 20 8 11 1013.4 1013.1 0.0
31/03:30pm 30.3 27.0 -0.1 14 14.6 E 7 13 4 7 1013.5 1013.2 0.0
31/03:00pm 30.2 25.7 -0.2 14 14.6 ESE 13 28 7 15 1013.6 1013.3 0.0
31/02:30pm 29.5 26.0 1.1 16 13.8 SSE 9 19 5 10 1014.1 1013.7 0.0
31/02:00pm 29.5 26.4 1.1 16 13.8 W 7 20 4 11 1014.6 1014.2 0.0
31/01:30pm 29.9 25.4 2.2 17 13.8 SSE 15 22 8 12 1015.1 1014.7 0.0
31/01:00pm 29.2 25.4 1.7 17 13.5 S 11 20 6 11 1015.6 1015.2 0.0
31/12:30pm 28.1 24.8 2.3 19 12.7 NE 9 17 5 9 1016.2 1015.8 0.0
31/12:00pm 28.4 24.7 2.6 19 12.8 E 11 19 6 10 1016.6 1016.3 0.0
31/11:30am 28.4 24.4 2.6 19 12.8 ENE 13 22 7 12 1017.1 1016.8 0.0
31/11:00am 27.3 24.2 3.7 22 11.8 E 9 20 5 11 1017.6 1017.3 0.0
31/10:30am 25.9 22.7 3.2 23 11.2 NNE 9 19 5 10 1017.9 1017.6 0.0
31/10:00am 25.3 21.8 3.3 24 10.8 NE 11 17 6 9 1018.1 1017.8 0.0
31/09:30am 23.9 20.0 3.2 26 10.1 ENE 13 19 7 10 1018.3 1018.0 0.0
31/09:00am 21.3 17.8 1.0 26 9.3 E 9 13 5 7 1018.2 1017.9 0.0
31/08:30am 18.2 13.3 -0.6 28 8.1 E 15 19 8 10 1018.1 1017.8 0.0
31/08:00am 16.2 12.0 -0.9 31 7.2 ESE 11 13 6 7 1018.0 1017.7 0.0
31/07:30am 12.9 8.9 -2.6 34 6.1 SE 9 13 5 7 1017.5 1017.2 0.0
31/07:00am 9.8 5.6 -3.5 39 4.9 SE 9 11 5 6 1017.0 1016.7 0.0
31/06:30am 9.6 5.8 -3.7 39 4.9 SSE 7 7 4 4 1016.9 1016.6 0.0
31/06:00am 9.8 5.2 -3.8 38 5.0 SE 11 11 6 6 1016.6 1016.3 0.0
31/05:30am 10.4 6.6 -3.6 37 5.2 SE 7 9 4 5 1016.3 1015.9 0.0
31/05:00am 11.6 7.1 -3.3 35 5.7 SE 11 13 6 7 1015.9 1015.5 0.0
31/04:30am 11.7 7.2 -2.9 36 5.6 SE 11 13 6 7 1015.9 1015.5 0.0
31/04:00am 11.6 7.4 -3.7 34 5.8 ESE 9 11 5 6 1015.8 1015.4 0.0
31/03:30am 11.8 7.3 -3.5 34 5.8 SE 11 13 6 7 1015.7 1015.3 0.0
31/03:00am 12.3 7.4 -3.5 33 6.0 SE 13 15 7 8 1015.7 1015.3 0.0
31/02:30am 11.8 6.8 -3.9 33 5.9 ESE 13 15 7 8 1015.8 1015.4 0.0
31/02:00am 12.4 7.8 -4.2 31 6.2 ESE 11 11 6 6 1016.0 1015.6 0.0
31/01:30am 14.4 9.9 -2.9 30 6.9 SE 11 13 6 7 1016.1 1015.7 0.0
31/01:00am 15.2 10.4 -2.2 30 7.1 SE 13 15 7 8 1016.3 1015.9 0.0
31/12:30am 15.9 11.1 -2.6 28 7.5 SSE 13 17 7 9 1016.3 1015.9 0.0
31/12:00am 15.3 10.5 -2.6 29 7.2 SSE 13 15 7 8 1016.3 1015.9 0.0
 
Date/Time
EST
Temp
°C
App
Temp
°C
Dew
Point
Rel
Hum
%
Delta-T
°C
Wind Press
QNH
hPa
Press
MSL
hPa
Rain
since 9 am
mm
Dir
 
Spd
km/h
Gust
km/h
Spd
kts
Gust
kts
30/11:30pm 15.8 11.3 -3.1 27 7.6 SE 11 13 6 7 1016.4 1016.1 0.0
30/11:00pm 17.0 12.7 -1.6 28 7.8 SSE 11 15 6 8 1016.4 1016.1 0.0
30/10:30pm 16.6 11.9 -2.0 28 7.7 SSE 13 15 7 8 1016.4 1016.1 0.0
30/10:00pm 17.5 12.4 -2.2 26 8.2 SSE 15 17 8 9 1016.2 1015.8 0.0
30/09:30pm 17.3 12.6 -1.9 27 8.0 SSE 13 17 7 9 1016.2 1015.8 0.0
30/09:00pm 18.1 13.0 -1.7 26 8.3 SSE 15 19 8 10 1016.0 1015.6 0.0
30/08:30pm 18.8 14.1 -1.6 25 8.7 SSE 13 15 7 8 1015.7 1015.3 0.0
30/08:00pm 19.8 15.1 -1.9 23 9.3 SSE 13 15 7 8 1015.5 1015.1 0.0
30/07:30pm 21.0 16.8 -0.9 23 9.6 SSE 11 13 6 7 1015.2 1014.8 0.0
30/07:00pm 23.3 18.7 -0.9 20 10.9 SSE 13 15 7 8 1014.9 1014.5 0.0
30/06:30pm 25.5 21.4 -0.5 18 12.0 SSE 11 15 6 8 1014.8 1014.4 0.0
30/06:00pm 28.1 23.0 0.8 17 13.1 SSE 17 24 9 13 1014.5 1014.1 0.0
30/05:30pm 28.8 24.2 1.3 17 13.4 SE 15 26 8 14 1014.2 1013.8 0.0
30/05:00pm 29.1 24.1 1.6 17 13.5 SSE 17 22 9 12 1014.3 1013.9 0.0
30/04:30pm 29.9 24.9 1.4 16 14.0 SE 17 24 9 13 1014.3 1013.9 0.0
30/04:00pm 30.1 25.6 2.4 17 13.9 ESE 15 28 8 15 1014.4 1014.0 0.0
30/03:30pm 29.6 24.3 2.0 17 13.7 SSE 19 26 10 14 1014.6 1014.2 0.0
30/03:00pm 30.1 25.6 2.4 17 13.9 ESE 15 24 8 13 1014.9 1014.5 0.0
30/02:30pm 29.6 25.6 2.8 18 13.5 SE 13 32 7 17 1015.3 1014.9 0.0
30/02:00pm 29.7 25.8 3.6 19 13.3 SE 13 37 7 20 1015.9 1015.5 0.0
30/01:30pm 28.9 24.7 3.7 20 12.8 S 15 28 8 15 1016.5 1016.2 0.0
30/01:00pm 28.3 24.5 3.9 21 12.4 SE 13 24 7 13 1017.3 1017.0 0.0
30/12:30pm 28.2 24.1 4.5 22 12.2 E 15 19 8 10 1017.8 1017.5 0.0
30/12:00pm 27.7 24.0 4.7 23 11.8 E 13 24 7 13 1018.3 1018.0 0.0
30/11:30am 27.8 23.9 5.4 24 11.6 ESE 15 26 8 14 1019.0 1018.7 0.0
30/11:00am 26.7 22.1 5.6 26 10.9 E 19 30 10 16 1019.4 1019.1 0.0
30/10:30am 25.9 22.2 6.5 29 10.2 ENE 15 20 8 11 1019.8 1019.5 0.0
30/10:00am 24.2 20.8 6.0 31 9.3 ENE 13 20 7 11 1020.0 1019.7 0.0
30/09:30am 22.8 19.5 4.3 30 9.1 E 11 15 6 8 1020.1 1019.8 0.0

Other Formats:

Comma delimited format used in spreadsheet applications
http://www.bom.gov.au/fwo/IDQ60801/IDQ60801.94337.axf

JavaScript Object Notation format (JSON) in row-major order
http://www.bom.gov.au/fwo/IDQ60801/IDQ60801.94337.json